sensor_id;sensor_type;location;lat;lon;timestamp;P1;durP1;ratioP1;P2;durP2;ratioP2
25846;SDS011;13676;50.168;8.568;2023-03-25T00:00:14;1.83;;;0.70;;
25846;SDS011;13676;50.168;8.568;2023-03-25T00:02:45;1.38;;;0.60;;
25846;SDS011;13676;50.168;8.568;2023-03-25T00:05:12;1.85;;;0.70;;
25846;SDS011;13676;50.168;8.568;2023-03-25T00:07:44;1.73;;;0.80;;
25846;SDS011;13676;50.168;8.568;2023-03-25T00:10:11;3.55;;;0.80;;
25846;SDS011;13676;50.168;8.568;2023-03-25T00:12:37;1.40;;;0.82;;
25846;SDS011;13676;50.168;8.568;2023-03-25T00:15:03;4.85;;;3.60;;
25846;SDS011;13676;50.168;8.568;2023-03-25T00:17:30;1.70;;;0.75;;
25846;SDS011;13676;50.168;8.568;2023-03-25T00:19:57;1.35;;;0.80;;
25846;SDS011;13676;50.168;8.568;2023-03-25T00:22:24;1.70;;;0.90;;
25846;SDS011;13676;50.168;8.568;2023-03-25T00:24:50;2.38;;;0.88;;
25846;SDS011;13676;50.168;8.568;2023-03-25T00:27:15;1.83;;;0.95;;
25846;SDS011;13676;50.168;8.568;2023-03-25T00:29:47;1.88;;;0.70;;
25846;SDS011;13676;50.168;8.568;2023-03-25T00:32:13;1.90;;;0.60;;
25846;SDS011;13676;50.168;8.568;2023-03-25T00:34:39;0.80;;;0.57;;
25846;SDS011;13676;50.168;8.568;2023-03-25T00:37:11;1.63;;;0.80;;
25846;SDS011;13676;50.168;8.568;2023-03-25T00:39:37;1.27;;;0.75;;
25846;SDS011;13676;50.168;8.568;2023-03-25T00:42:02;0.77;;;0.43;;
25846;SDS011;13676;50.168;8.568;2023-03-25T00:44:28;1.48;;;0.50;;
25846;SDS011;13676;50.168;8.568;2023-03-25T00:46:54;0.77;;;0.50;;
25846;SDS011;13676;50.168;8.568;2023-03-25T00:49:19;0.52;;;0.50;;
25846;SDS011;13676;50.168;8.568;2023-03-25T00:51:49;1.85;;;0.68;;
25846;SDS011;13676;50.168;8.568;2023-03-25T00:54:15;0.63;;;0.50;;
25846;SDS011;13676;50.168;8.568;2023-03-25T00:56:42;0.73;;;0.57;;
25846;SDS011;13676;50.168;8.568;2023-03-25T00:59:07;0.95;;;0.80;;
25846;SDS011;13676;50.168;8.568;2023-03-25T01:01:33;1.00;;;0.57;;
25846;SDS011;13676;50.168;8.568;2023-03-25T01:04:03;1.10;;;0.60;;
25846;SDS011;13676;50.168;8.568;2023-03-25T01:06:36;0.77;;;0.40;;
25846;SDS011;13676;50.168;8.568;2023-03-25T01:09:06;0.75;;;0.50;;
25846;SDS011;13676;50.168;8.568;2023-03-25T01:11:32;2.30;;;0.70;;
25846;SDS011;13676;50.168;8.568;2023-03-25T01:13:59;1.15;;;0.50;;
25846;SDS011;13676;50.168;8.568;2023-03-25T01:16:25;1.17;;;0.50;;
25846;SDS011;13676;50.168;8.568;2023-03-25T01:18:53;1.48;;;0.52;;
25846;SDS011;13676;50.168;8.568;2023-03-25T01:21:18;0.70;;;0.50;;
25846;SDS011;13676;50.168;8.568;2023-03-25T01:23:44;3.00;;;0.60;;
25846;SDS011;13676;50.168;8.568;2023-03-25T01:26:09;0.63;;;0.50;;
25846;SDS011;13676;50.168;8.568;2023-03-25T01:28:37;1.20;;;0.82;;
25846;SDS011;13676;50.168;8.568;2023-03-25T01:31:04;1.30;;;0.63;;
25846;SDS011;13676;50.168;8.568;2023-03-25T01:33:31;3.35;;;0.75;;
25846;SDS011;13676;50.168;8.568;2023-03-25T01:35:57;3.92;;;0.70;;
25846;SDS011;13676;50.168;8.568;2023-03-25T01:38:24;1.05;;;0.73;;
25846;SDS011;13676;50.168;8.568;2023-03-25T01:40:51;1.30;;;0.80;;
25846;SDS011;13676;50.168;8.568;2023-03-25T01:43:17;2.90;;;1.17;;
25846;SDS011;13676;50.168;8.568;2023-03-25T01:45:42;1.05;;;0.70;;
25846;SDS011;13676;50.168;8.568;2023-03-25T01:50:52;2.00;;;0.82;;
25846;SDS011;13676;50.168;8.568;2023-03-25T01:53:21;1.80;;;0.80;;
25846;SDS011;13676;50.168;8.568;2023-03-25T01:55:46;2.10;;;1.00;;
25846;SDS011;13676;50.168;8.568;2023-03-25T01:58:12;2.15;;;0.60;;
25846;SDS011;13676;50.168;8.568;2023-03-25T02:00:40;2.65;;;0.90;;
25846;SDS011;13676;50.168;8.568;2023-03-25T02:03:08;2.55;;;0.70;;
25846;SDS011;13676;50.168;8.568;2023-03-25T02:05:35;5.07;;;0.90;;
25846;SDS011;13676;50.168;8.568;2023-03-25T02:08:06;2.35;;;0.80;;
25846;SDS011;13676;50.168;8.568;2023-03-25T02:10:33;5.20;;;1.15;;
25846;SDS011;13676;50.168;8.568;2023-03-25T02:13:00;1.88;;;0.85;;
25846;SDS011;13676;50.168;8.568;2023-03-25T02:15:25;5.85;;;1.27;;
25846;SDS011;13676;50.168;8.568;2023-03-25T02:27:08;3.10;;;0.73;;
25846;SDS011;13676;50.168;8.568;2023-03-25T02:29:43;2.50;;;0.70;;
25846;SDS011;13676;50.168;8.568;2023-03-25T02:41:24;2.97;;;1.00;;
25846;SDS011;13676;50.168;8.568;2023-03-25T02:43:32;4.97;;;1.00;;
25846;SDS011;13676;50.168;8.568;2023-03-25T02:46:02;3.38;;;0.70;;
25846;SDS011;13676;50.168;8.568;2023-03-25T02:48:33;2.67;;;0.93;;
25846;SDS011;13676;50.168;8.568;2023-03-25T02:51:07;2.10;;;0.98;;
25846;SDS011;13676;50.168;8.568;2023-03-25T02:53:39;4.45;;;1.10;;
25846;SDS011;13676;50.168;8.568;2023-03-25T02:56:06;2.90;;;1.15;;
25846;SDS011;13676;50.168;8.568;2023-03-25T02:58:36;4.55;;;1.10;;
25846;SDS011;13676;50.168;8.568;2023-03-25T03:01:03;4.18;;;1.23;;
25846;SDS011;13676;50.168;8.568;2023-03-25T03:03:29;4.25;;;0.90;;
25846;SDS011;13676;50.168;8.568;2023-03-25T03:05:58;5.78;;;1.20;;
25846;SDS011;13676;50.168;8.568;2023-03-25T03:11:24;4.10;;;1.13;;
25846;SDS011;13676;50.168;8.568;2023-03-25T03:14:09;6.57;;;1.45;;
25846;SDS011;13676;50.168;8.568;2023-03-25T03:19:25;5.07;;;1.30;;
25846;SDS011;13676;50.168;8.568;2023-03-25T03:25:05;4.85;;;1.50;;
25846;SDS011;13676;50.168;8.568;2023-03-25T03:27:37;2.53;;;1.17;;
25846;SDS011;13676;50.168;8.568;2023-03-25T03:30:16;5.07;;;1.80;;
25846;SDS011;13676;50.168;8.568;2023-03-25T03:32:59;6.70;;;1.20;;
25846;SDS011;13676;50.168;8.568;2023-03-25T03:38:03;4.78;;;1.25;;
25846;SDS011;13676;50.168;8.568;2023-03-25T03:40:33;3.65;;;1.25;;
25846;SDS011;13676;50.168;8.568;2023-03-25T03:43:04;2.95;;;0.95;;
25846;SDS011;13676;50.168;8.568;2023-03-25T03:45:43;2.33;;;1.02;;
25846;SDS011;13676;50.168;8.568;2023-03-25T03:48:15;4.68;;;1.38;;
25846;SDS011;13676;50.168;8.568;2023-03-25T03:50:48;6.70;;;1.25;;
25846;SDS011;13676;50.168;8.568;2023-03-25T03:53:22;2.53;;;1.00;;
25846;SDS011;13676;50.168;8.568;2023-03-25T03:56:04;4.82;;;1.27;;
25846;SDS011;13676;50.168;8.568;2023-03-25T03:58:34;4.13;;;1.20;;
25846;SDS011;13676;50.168;8.568;2023-03-25T04:01:08;2.38;;;1.00;;
25846;SDS011;13676;50.168;8.568;2023-03-25T04:03:42;3.15;;;0.95;;
25846;SDS011;13676;50.168;8.568;2023-03-25T04:11:43;3.53;;;0.90;;
25846;SDS011;13676;50.168;8.568;2023-03-25T04:14:11;4.88;;;1.23;;
25846;SDS011;13676;50.168;8.568;2023-03-25T04:16:37;2.00;;;0.85;;
25846;SDS011;13676;50.168;8.568;2023-03-25T04:19:06;4.13;;;1.20;;
25846;SDS011;13676;50.168;8.568;2023-03-25T04:21:33;2.40;;;1.05;;
25846;SDS011;13676;50.168;8.568;2023-03-25T04:23:58;3.50;;;1.20;;
25846;SDS011;13676;50.168;8.568;2023-03-25T04:26:28;3.13;;;1.23;;
25846;SDS011;13676;50.168;8.568;2023-03-25T04:28:58;4.75;;;1.60;;
25846;SDS011;13676;50.168;8.568;2023-03-25T04:31:25;3.15;;;1.08;;
25846;SDS011;13676;50.168;8.568;2023-03-25T04:33:54;6.35;;;1.17;;
25846;SDS011;13676;50.168;8.568;2023-03-25T04:36:25;3.25;;;1.10;;
25846;SDS011;13676;50.168;8.568;2023-03-25T04:38:57;1.98;;;0.88;;
25846;SDS011;13676;50.168;8.568;2023-03-25T04:41:23;5.28;;;1.42;;
25846;SDS011;13676;50.168;8.568;2023-03-25T04:43:48;3.13;;;1.40;;
25846;SDS011;13676;50.168;8.568;2023-03-25T04:46:14;5.55;;;1.33;;
25846;SDS011;13676;50.168;8.568;2023-03-25T04:48:41;2.50;;;1.10;;
25846;SDS011;13676;50.168;8.568;2023-03-25T04:51:09;4.35;;;1.42;;
25846;SDS011;13676;50.168;8.568;2023-03-25T04:53:36;4.25;;;1.48;;
25846;SDS011;13676;50.168;8.568;2023-03-25T04:56:03;4.22;;;1.60;;
25846;SDS011;13676;50.168;8.568;2023-03-25T04:58:29;5.53;;;1.30;;
25846;SDS011;13676;50.168;8.568;2023-03-25T05:00:54;5.25;;;1.40;;
25846;SDS011;13676;50.168;8.568;2023-03-25T05:03:20;6.50;;;1.35;;
25846;SDS011;13676;50.168;8.568;2023-03-25T05:05:51;4.53;;;1.55;;
25846;SDS011;13676;50.168;8.568;2023-03-25T05:08:17;5.78;;;1.17;;
25846;SDS011;13676;50.168;8.568;2023-03-25T05:10:45;5.07;;;1.52;;
25846;SDS011;13676;50.168;8.568;2023-03-25T05:13:11;4.63;;;1.33;;
25846;SDS011;13676;50.168;8.568;2023-03-25T05:15:36;5.20;;;1.65;;
25846;SDS011;13676;50.168;8.568;2023-03-25T05:18:05;4.63;;;1.20;;
25846;SDS011;13676;50.168;8.568;2023-03-25T05:20:44;4.05;;;1.05;;
25846;SDS011;13676;50.168;8.568;2023-03-25T05:23:12;4.75;;;1.58;;
25846;SDS011;13676;50.168;8.568;2023-03-25T05:25:40;7.55;;;2.13;;
25846;SDS011;13676;50.168;8.568;2023-03-25T05:28:07;6.10;;;1.10;;
25846;SDS011;13676;50.168;8.568;2023-03-25T05:30:34;3.65;;;1.40;;
25846;SDS011;13676;50.168;8.568;2023-03-25T05:33:03;4.15;;;1.20;;
25846;SDS011;13676;50.168;8.568;2023-03-25T05:35:34;6.07;;;1.33;;
25846;SDS011;13676;50.168;8.568;2023-03-25T05:38:00;7.80;;;1.83;;
25846;SDS011;13676;50.168;8.568;2023-03-25T05:40:25;5.60;;;1.20;;
25846;SDS011;13676;50.168;8.568;2023-03-25T05:42:51;7.15;;;1.58;;
25846;SDS011;13676;50.168;8.568;2023-03-25T05:45:18;3.63;;;1.15;;
25846;SDS011;13676;50.168;8.568;2023-03-25T05:47:44;3.97;;;1.30;;
25846;SDS011;13676;50.168;8.568;2023-03-25T05:50:10;3.42;;;1.48;;
25846;SDS011;13676;50.168;8.568;2023-03-25T05:52:35;7.00;;;1.20;;
25846;SDS011;13676;50.168;8.568;2023-03-25T05:55:01;3.40;;;1.30;;
25846;SDS011;13676;50.168;8.568;2023-03-25T05:57:27;4.72;;;1.20;;
25846;SDS011;13676;50.168;8.568;2023-03-25T05:59:53;6.80;;;1.58;;
25846;SDS011;13676;50.168;8.568;2023-03-25T06:02:19;4.65;;;1.33;;
25846;SDS011;13676;50.168;8.568;2023-03-25T06:04:48;5.82;;;1.20;;
25846;SDS011;13676;50.168;8.568;2023-03-25T06:07:15;3.80;;;1.30;;
25846;SDS011;13676;50.168;8.568;2023-03-25T06:09:46;6.47;;;1.50;;
25846;SDS011;13676;50.168;8.568;2023-03-25T06:12:14;3.47;;;1.30;;
25846;SDS011;13676;50.168;8.568;2023-03-25T06:14:41;6.10;;;1.70;;
25846;SDS011;13676;50.168;8.568;2023-03-25T06:19:35;8.65;;;1.88;;
25846;SDS011;13676;50.168;8.568;2023-03-25T06:22:04;11.95;;;1.80;;
25846;SDS011;13676;50.168;8.568;2023-03-25T06:26:56;4.03;;;1.40;;
25846;SDS011;13676;50.168;8.568;2023-03-25T06:29:21;4.03;;;1.40;;
25846;SDS011;13676;50.168;8.568;2023-03-25T06:31:46;6.63;;;1.45;;
25846;SDS011;13676;50.168;8.568;2023-03-25T06:34:12;4.65;;;1.63;;
25846;SDS011;13676;50.168;8.568;2023-03-25T06:36:37;8.82;;;1.80;;
25846;SDS011;13676;50.168;8.568;2023-03-25T06:39:02;5.47;;;1.40;;
25846;SDS011;13676;50.168;8.568;2023-03-25T06:41:29;6.63;;;1.70;;
25846;SDS011;13676;50.168;8.568;2023-03-25T06:43:54;3.75;;;1.30;;
25846;SDS011;13676;50.168;8.568;2023-03-25T06:46:20;4.60;;;1.38;;
25846;SDS011;13676;50.168;8.568;2023-03-25T06:48:45;8.57;;;1.98;;
25846;SDS011;13676;50.168;8.568;2023-03-25T06:51:10;2.63;;;1.10;;
25846;SDS011;13676;50.168;8.568;2023-03-25T06:53:36;5.80;;;1.38;;
25846;SDS011;13676;50.168;8.568;2023-03-25T06:56:01;3.05;;;1.27;;
25846;SDS011;13676;50.168;8.568;2023-03-25T06:58:26;6.20;;;1.08;;
25846;SDS011;13676;50.168;8.568;2023-03-25T07:00:58;6.95;;;2.17;;
25846;SDS011;13676;50.168;8.568;2023-03-25T07:06:03;2.03;;;1.20;;
25846;SDS011;13676;50.168;8.568;2023-03-25T07:08:29;3.00;;;1.13;;
25846;SDS011;13676;50.168;8.568;2023-03-25T07:11:05;5.85;;;1.45;;
25846;SDS011;13676;50.168;8.568;2023-03-25T07:13:31;6.75;;;1.80;;
25846;SDS011;13676;50.168;8.568;2023-03-25T07:15:57;4.20;;;1.58;;
25846;SDS011;13676;50.168;8.568;2023-03-25T07:18:23;5.15;;;1.45;;
25846;SDS011;13676;50.168;8.568;2023-03-25T07:20:48;4.60;;;1.63;;
25846;SDS011;13676;50.168;8.568;2023-03-25T07:23:13;4.90;;;1.70;;
25846;SDS011;13676;50.168;8.568;2023-03-25T07:28:14;8.68;;;1.92;;
25846;SDS011;13676;50.168;8.568;2023-03-25T07:30:39;7.45;;;1.73;;
25846;SDS011;13676;50.168;8.568;2023-03-25T07:33:05;7.35;;;1.83;;
25846;SDS011;13676;50.168;8.568;2023-03-25T07:35:30;5.78;;;1.58;;
25846;SDS011;13676;50.168;8.568;2023-03-25T07:37:56;8.30;;;1.40;;
25846;SDS011;13676;50.168;8.568;2023-03-25T07:40:21;9.30;;;2.00;;
25846;SDS011;13676;50.168;8.568;2023-03-25T07:42:47;6.10;;;1.50;;
25846;SDS011;13676;50.168;8.568;2023-03-25T07:47:47;12.02;;;2.15;;
25846;SDS011;13676;50.168;8.568;2023-03-25T07:52:49;10.68;;;1.77;;
25846;SDS011;13676;50.168;8.568;2023-03-25T07:55:15;9.43;;;1.90;;
25846;SDS011;13676;50.168;8.568;2023-03-25T08:00:15;11.57;;;2.53;;
25846;SDS011;13676;50.168;8.568;2023-03-25T08:22:08;8.90;;;2.45;;
25846;SDS011;13676;50.168;8.568;2023-03-25T08:24:36;17.15;;;3.20;;
25846;SDS011;13676;50.168;8.568;2023-03-25T08:27:01;10.57;;;2.30;;
25846;SDS011;13676;50.168;8.568;2023-03-25T08:29:27;18.95;;;3.28;;
25846;SDS011;13676;50.168;8.568;2023-03-25T08:31:53;12.77;;;2.67;;
25846;SDS011;13676;50.168;8.568;2023-03-25T08:36:54;16.63;;;2.90;;
25846;SDS011;13676;50.168;8.568;2023-03-25T08:39:19;12.15;;;2.80;;
25846;SDS011;13676;50.168;8.568;2023-03-25T08:41:46;15.75;;;3.33;;
25846;SDS011;13676;50.168;8.568;2023-03-25T08:44:11;13.25;;;2.92;;
25846;SDS011;13676;50.168;8.568;2023-03-25T08:46:36;16.85;;;3.00;;
25846;SDS011;13676;50.168;8.568;2023-03-25T08:49:02;12.75;;;3.17;;
25846;SDS011;13676;50.168;8.568;2023-03-25T08:51:28;11.68;;;2.58;;
25846;SDS011;13676;50.168;8.568;2023-03-25T08:53:54;12.10;;;2.80;;
25846;SDS011;13676;50.168;8.568;2023-03-25T08:56:19;15.45;;;2.88;;
25846;SDS011;13676;50.168;8.568;2023-03-25T08:58:45;14.13;;;3.05;;
25846;SDS011;13676;50.168;8.568;2023-03-25T09:01:11;17.70;;;3.55;;
25846;SDS011;13676;50.168;8.568;2023-03-25T09:03:38;16.42;;;2.70;;
25846;SDS011;13676;50.168;8.568;2023-03-25T09:06:07;14.35;;;3.33;;
25846;SDS011;13676;50.168;8.568;2023-03-25T09:11:01;18.73;;;3.38;;
25846;SDS011;13676;50.168;8.568;2023-03-25T09:13:26;10.13;;;2.60;;
25846;SDS011;13676;50.168;8.568;2023-03-25T09:15:52;17.88;;;3.10;;
25846;SDS011;13676;50.168;8.568;2023-03-25T09:18:17;17.25;;;2.70;;
25846;SDS011;13676;50.168;8.568;2023-03-25T09:20:43;13.57;;;2.90;;
25846;SDS011;13676;50.168;8.568;2023-03-25T09:28:18;10.00;;;2.45;;
25846;SDS011;13676;50.168;8.568;2023-03-25T09:30:43;13.70;;;2.83;;
25846;SDS011;13676;50.168;8.568;2023-03-25T09:33:10;12.80;;;2.65;;
25846;SDS011;13676;50.168;8.568;2023-03-25T09:35:36;12.48;;;2.90;;
25846;SDS011;13676;50.168;8.568;2023-03-25T09:38:03;15.65;;;2.67;;
25846;SDS011;13676;50.168;8.568;2023-03-25T09:40:29;12.10;;;2.45;;
25846;SDS011;13676;50.168;8.568;2023-03-25T09:45:45;5.13;;;1.00;;
25846;SDS011;13676;50.168;8.568;2023-03-25T09:48:26;1.75;;;0.50;;
25846;SDS011;13676;50.168;8.568;2023-03-25T09:50:59;2.45;;;0.85;;
25846;SDS011;13676;50.168;8.568;2023-03-25T09:53:33;2.28;;;0.70;;
25846;SDS011;13676;50.168;8.568;2023-03-25T09:56:23;2.55;;;0.75;;
25846;SDS011;13676;50.168;8.568;2023-03-25T09:59:00;1.40;;;0.70;;
25846;SDS011;13676;50.168;8.568;2023-03-25T10:18:16;2.75;;;0.95;;
25846;SDS011;13676;50.168;8.568;2023-03-25T10:21:06;2.80;;;0.80;;
25846;SDS011;13676;50.168;8.568;2023-03-25T10:26:12;3.65;;;0.80;;
25846;SDS011;13676;50.168;8.568;2023-03-25T10:29:04;2.97;;;1.00;;
25846;SDS011;13676;50.168;8.568;2023-03-25T10:31:33;3.00;;;0.93;;
25846;SDS011;13676;50.168;8.568;2023-03-25T10:36:37;0.55;;;0.47;;
25846;SDS011;13676;50.168;8.568;2023-03-25T10:39:14;2.97;;;1.10;;
25846;SDS011;13676;50.168;8.568;2023-03-25T10:41:43;4.95;;;0.98;;
25846;SDS011;13676;50.168;8.568;2023-03-25T10:44:11;2.15;;;1.00;;
25846;SDS011;13676;50.168;8.568;2023-03-25T10:49:10;4.30;;;1.00;;
25846;SDS011;13676;50.168;8.568;2023-03-25T10:51:47;2.63;;;0.98;;
25846;SDS011;13676;50.168;8.568;2023-03-25T10:54:15;2.10;;;0.85;;
25846;SDS011;13676;50.168;8.568;2023-03-25T10:56:45;4.70;;;1.00;;
25846;SDS011;13676;50.168;8.568;2023-03-25T11:04:28;5.97;;;1.00;;
25846;SDS011;13676;50.168;8.568;2023-03-25T11:06:58;3.13;;;0.90;;
25846;SDS011;13676;50.168;8.568;2023-03-25T11:09:27;4.35;;;1.30;;
25846;SDS011;13676;50.168;8.568;2023-03-25T11:11:58;4.10;;;1.15;;
25846;SDS011;13676;50.168;8.568;2023-03-25T11:14:25;5.22;;;1.10;;
25846;SDS011;13676;50.168;8.568;2023-03-25T11:16:58;3.15;;;0.93;;
25846;SDS011;13676;50.168;8.568;2023-03-25T11:19:29;5.97;;;1.38;;
25846;SDS011;13676;50.168;8.568;2023-03-25T11:21:57;4.90;;;1.10;;
25846;SDS011;13676;50.168;8.568;2023-03-25T11:24:28;4.95;;;1.17;;
25846;SDS011;13676;50.168;8.568;2023-03-25T11:26:55;6.25;;;1.25;;
25846;SDS011;13676;50.168;8.568;2023-03-25T11:29:22;8.13;;;1.40;;
25846;SDS011;13676;50.168;8.568;2023-03-25T11:34:31;6.50;;;1.35;;
25846;SDS011;13676;50.168;8.568;2023-03-25T11:39:38;7.40;;;1.30;;
25846;SDS011;13676;50.168;8.568;2023-03-25T11:44:42;4.38;;;1.05;;
25846;SDS011;13676;50.168;8.568;2023-03-25T11:47:14;5.78;;;1.60;;
25846;SDS011;13676;50.168;8.568;2023-03-25T11:49:46;3.75;;;1.38;;
25846;SDS011;13676;50.168;8.568;2023-03-25T11:52:36;4.10;;;1.27;;
25846;SDS011;13676;50.168;8.568;2023-03-25T11:55:06;4.93;;;1.20;;
25846;SDS011;13676;50.168;8.568;2023-03-25T11:57:43;3.10;;;0.90;;
25846;SDS011;13676;50.168;8.568;2023-03-25T12:03:05;6.82;;;1.90;;
25846;SDS011;13676;50.168;8.568;2023-03-25T12:05:37;6.40;;;1.33;;
25846;SDS011;13676;50.168;8.568;2023-03-25T12:11:13;4.82;;;1.30;;
25846;SDS011;13676;50.168;8.568;2023-03-25T12:16:32;6.45;;;1.45;;
25846;SDS011;13676;50.168;8.568;2023-03-25T12:19:06;4.35;;;1.15;;
25846;SDS011;13676;50.168;8.568;2023-03-25T12:26:43;4.70;;;1.05;;
25846;SDS011;13676;50.168;8.568;2023-03-25T12:34:32;6.03;;;1.15;;
25846;SDS011;13676;50.168;8.568;2023-03-25T12:42:05;2.70;;;0.95;;
25846;SDS011;13676;50.168;8.568;2023-03-25T12:52:37;4.13;;;0.95;;
25846;SDS011;13676;50.168;8.568;2023-03-25T13:05:46;3.28;;;1.13;;
25846;SDS011;13676;50.168;8.568;2023-03-25T13:11:05;3.17;;;1.10;;
25846;SDS011;13676;50.168;8.568;2023-03-25T13:13:33;3.22;;;1.17;;
25846;SDS011;13676;50.168;8.568;2023-03-25T13:16:15;5.03;;;0.98;;
25846;SDS011;13676;50.168;8.568;2023-03-25T13:18:52;4.45;;;1.00;;
25846;SDS011;13676;50.168;8.568;2023-03-25T13:21:42;3.35;;;1.00;;
25846;SDS011;13676;50.168;8.568;2023-03-25T13:24:16;5.47;;;1.00;;
25846;SDS011;13676;50.168;8.568;2023-03-25T13:26:44;3.80;;;0.80;;
25846;SDS011;13676;50.168;8.568;2023-03-25T13:31:48;2.45;;;0.75;;
25846;SDS011;13676;50.168;8.568;2023-03-25T13:34:30;3.60;;;1.00;;
25846;SDS011;13676;50.168;8.568;2023-03-25T13:39:56;5.13;;;1.08;;
25846;SDS011;13676;50.168;8.568;2023-03-25T13:45:20;10.20;;;1.00;;
25846;SDS011;13676;50.168;8.568;2023-03-25T13:50:35;3.67;;;1.10;;
25846;SDS011;13676;50.168;8.568;2023-03-25T13:55:34;4.75;;;1.10;;
25846;SDS011;13676;50.168;8.568;2023-03-25T13:58:14;5.28;;;1.13;;
25846;SDS011;13676;50.168;8.568;2023-03-25T14:00:47;6.38;;;1.20;;
25846;SDS011;13676;50.168;8.568;2023-03-25T14:06:08;4.45;;;1.13;;
25846;SDS011;13676;50.168;8.568;2023-03-25T14:14:11;4.60;;;1.50;;
25846;SDS011;13676;50.168;8.568;2023-03-25T14:16:44;3.90;;;1.02;;
25846;SDS011;13676;50.168;8.568;2023-03-25T14:19:13;4.93;;;1.08;;
25846;SDS011;13676;50.168;8.568;2023-03-25T14:21:42;3.58;;;1.38;;
25846;SDS011;13676;50.168;8.568;2023-03-25T14:24:27;8.20;;;1.80;;
25846;SDS011;13676;50.168;8.568;2023-03-25T14:27:06;3.35;;;1.10;;
25846;SDS011;13676;50.168;8.568;2023-03-25T14:29:40;3.33;;;1.00;;
25846;SDS011;13676;50.168;8.568;2023-03-25T14:34:33;5.20;;;1.30;;
25846;SDS011;13676;50.168;8.568;2023-03-25T14:44:44;9.55;;;1.30;;
25846;SDS011;13676;50.168;8.568;2023-03-25T14:52:44;4.38;;;1.40;;
25846;SDS011;13676;50.168;8.568;2023-03-25T14:55:20;9.02;;;1.42;;
25846;SDS011;13676;50.168;8.568;2023-03-25T15:00:21;5.63;;;1.45;;
25846;SDS011;13676;50.168;8.568;2023-03-25T15:02:49;5.47;;;1.85;;
25846;SDS011;13676;50.168;8.568;2023-03-25T15:05:24;7.38;;;1.40;;
25846;SDS011;13676;50.168;8.568;2023-03-25T15:07:52;4.22;;;1.30;;
25846;SDS011;13676;50.168;8.568;2023-03-25T15:15:29;4.50;;;1.45;;
25846;SDS011;13676;50.168;8.568;2023-03-25T15:20:31;4.85;;;1.65;;
25846;SDS011;13676;50.168;8.568;2023-03-25T15:54:56;4.53;;;1.70;;
25846;SDS011;13676;50.168;8.568;2023-03-25T15:57:41;6.93;;;1.30;;
25846;SDS011;13676;50.168;8.568;2023-03-25T16:00:13;4.28;;;1.45;;
25846;SDS011;13676;50.168;8.568;2023-03-25T16:02:57;4.55;;;1.38;;
25846;SDS011;13676;50.168;8.568;2023-03-25T16:05:30;6.25;;;1.23;;
25846;SDS011;13676;50.168;8.568;2023-03-25T16:07:57;3.80;;;1.27;;
25846;SDS011;13676;50.168;8.568;2023-03-25T16:12:50;4.72;;;1.50;;
25846;SDS011;13676;50.168;8.568;2023-03-25T16:15:16;3.95;;;1.20;;
25846;SDS011;13676;50.168;8.568;2023-03-25T16:20:13;8.23;;;1.60;;
25846;SDS011;13676;50.168;8.568;2023-03-25T16:25:13;4.70;;;1.30;;
25846;SDS011;13676;50.168;8.568;2023-03-25T16:27:42;6.40;;;1.58;;
25846;SDS011;13676;50.168;8.568;2023-03-25T16:35:24;7.68;;;1.80;;
25846;SDS011;13676;50.168;8.568;2023-03-25T16:37:57;7.70;;;1.70;;
25846;SDS011;13676;50.168;8.568;2023-03-25T16:40:27;6.30;;;1.35;;
25846;SDS011;13676;50.168;8.568;2023-03-25T16:43:01;3.85;;;1.00;;
25846;SDS011;13676;50.168;8.568;2023-03-25T16:45:28;3.03;;;1.00;;
25846;SDS011;13676;50.168;8.568;2023-03-25T16:47:54;2.80;;;1.08;;
25846;SDS011;13676;50.168;8.568;2023-03-25T16:50:20;3.13;;;1.10;;
25846;SDS011;13676;50.168;8.568;2023-03-25T16:52:48;4.57;;;1.00;;
25846;SDS011;13676;50.168;8.568;2023-03-25T16:58:25;2.78;;;0.82;;
25846;SDS011;13676;50.168;8.568;2023-03-25T17:00:52;5.53;;;0.95;;
25846;SDS011;13676;50.168;8.568;2023-03-25T17:06:21;3.55;;;1.00;;
25846;SDS011;13676;50.168;8.568;2023-03-25T17:08:51;4.15;;;1.00;;
25846;SDS011;13676;50.168;8.568;2023-03-25T17:11:18;5.65;;;1.20;;
25846;SDS011;13676;50.168;8.568;2023-03-25T17:13:45;6.32;;;1.38;;
25846;SDS011;13676;50.168;8.568;2023-03-25T17:16:18;7.60;;;1.58;;
25846;SDS011;13676;50.168;8.568;2023-03-25T17:18:46;5.90;;;1.40;;
25846;SDS011;13676;50.168;8.568;2023-03-25T17:21:18;5.57;;;1.25;;
25846;SDS011;13676;50.168;8.568;2023-03-25T17:23:46;5.88;;;2.50;;
25846;SDS011;13676;50.168;8.568;2023-03-25T17:26:12;6.63;;;2.60;;
25846;SDS011;13676;50.168;8.568;2023-03-25T17:33:57;3.78;;;0.90;;
25846;SDS011;13676;50.168;8.568;2023-03-25T17:36:31;4.80;;;1.15;;
25846;SDS011;13676;50.168;8.568;2023-03-25T17:38:58;2.33;;;0.80;;
25846;SDS011;13676;50.168;8.568;2023-03-25T17:41:28;3.23;;;1.00;;
25846;SDS011;13676;50.168;8.568;2023-03-25T17:43:54;3.15;;;1.00;;
25846;SDS011;13676;50.168;8.568;2023-03-25T17:46:24;3.17;;;0.90;;
25846;SDS011;13676;50.168;8.568;2023-03-25T17:48:52;5.30;;;1.05;;
25846;SDS011;13676;50.168;8.568;2023-03-25T17:51:21;7.90;;;1.70;;
25846;SDS011;13676;50.168;8.568;2023-03-25T17:53:49;7.43;;;1.63;;
25846;SDS011;13676;50.168;8.568;2023-03-25T17:56:15;3.85;;;1.77;;
25846;SDS011;13676;50.168;8.568;2023-03-25T17:58:43;2.40;;;1.13;;
25846;SDS011;13676;50.168;8.568;2023-03-25T18:01:12;6.22;;;1.17;;
25846;SDS011;13676;50.168;8.568;2023-03-25T18:03:38;3.95;;;1.58;;
25846;SDS011;13676;50.168;8.568;2023-03-25T18:06:03;9.02;;;1.30;;
25846;SDS011;13676;50.168;8.568;2023-03-25T18:21:22;2.70;;;1.10;;
25846;SDS011;13676;50.168;8.568;2023-03-25T18:23:48;2.22;;;0.95;;
25846;SDS011;13676;50.168;8.568;2023-03-25T18:28:49;4.82;;;1.42;;
25846;SDS011;13676;50.168;8.568;2023-03-25T18:31:15;3.08;;;1.10;;
25846;SDS011;13676;50.168;8.568;2023-03-25T18:33:48;4.10;;;1.00;;
25846;SDS011;13676;50.168;8.568;2023-03-25T18:41:24;3.20;;;0.93;;
25846;SDS011;13676;50.168;8.568;2023-03-25T18:43:49;1.77;;;0.90;;
25846;SDS011;13676;50.168;8.568;2023-03-25T18:46:15;3.55;;;0.80;;
25846;SDS011;13676;50.168;8.568;2023-03-25T18:48:41;2.67;;;1.00;;
25846;SDS011;13676;50.168;8.568;2023-03-25T18:51:08;2.15;;;0.90;;
25846;SDS011;13676;50.168;8.568;2023-03-25T18:53:34;2.95;;;1.30;;
25846;SDS011;13676;50.168;8.568;2023-03-25T18:56:00;2.67;;;1.10;;
25846;SDS011;13676;50.168;8.568;2023-03-25T18:58:27;2.15;;;1.02;;
25846;SDS011;13676;50.168;8.568;2023-03-25T19:00:57;4.50;;;1.00;;
25846;SDS011;13676;50.168;8.568;2023-03-25T19:03:24;3.17;;;0.70;;
25846;SDS011;13676;50.168;8.568;2023-03-25T19:08:29;1.92;;;0.90;;
25846;SDS011;13676;50.168;8.568;2023-03-25T19:10:54;3.95;;;0.70;;
25846;SDS011;13676;50.168;8.568;2023-03-25T19:15:47;3.65;;;1.13;;
25846;SDS011;13676;50.168;8.568;2023-03-25T19:18:21;3.38;;;1.10;;
25846;SDS011;13676;50.168;8.568;2023-03-25T19:20:50;2.97;;;1.20;;
25846;SDS011;13676;50.168;8.568;2023-03-25T19:23:16;3.15;;;0.85;;
25846;SDS011;13676;50.168;8.568;2023-03-25T19:25:42;2.40;;;1.02;;
25846;SDS011;13676;50.168;8.568;2023-03-25T19:28:09;5.03;;;1.95;;
25846;SDS011;13676;50.168;8.568;2023-03-25T19:30:34;3.67;;;1.25;;
25846;SDS011;13676;50.168;8.568;2023-03-25T19:33:00;4.15;;;1.20;;
25846;SDS011;13676;50.168;8.568;2023-03-25T19:35:26;6.32;;;1.27;;
25846;SDS011;13676;50.168;8.568;2023-03-25T19:37:52;4.70;;;1.30;;
25846;SDS011;13676;50.168;8.568;2023-03-25T19:42:54;2.40;;;0.88;;
25846;SDS011;13676;50.168;8.568;2023-03-25T19:45:21;3.45;;;1.17;;
25846;SDS011;13676;50.168;8.568;2023-03-25T19:47:47;5.63;;;1.58;;
25846;SDS011;13676;50.168;8.568;2023-03-25T19:50:14;3.58;;;1.27;;
25846;SDS011;13676;50.168;8.568;2023-03-25T19:52:41;3.13;;;1.08;;
25846;SDS011;13676;50.168;8.568;2023-03-25T19:55:07;3.03;;;1.13;;
25846;SDS011;13676;50.168;8.568;2023-03-25T19:57:33;4.65;;;1.35;;